Time;durP1;ratioP1;P1;durP2;ratioP2;P2;SDS_P1;SDS_P2;PMS_P1;PMS_P2;Temp;Humidity;BMP_temperature;BMP_pressure;BME280_temperature;BME280_humidity;BME280_pressure;Samples;Min_cycle;Max_cycle;Signal;HPM_P1;HPM_P2
2023/12/16 00:01:22;;;;;;;23.67;9.63;;;;;;;;;;5033603;28;20179;-69
2023/12/16 00:03:48;;;;;;;17.10;8.77;;;;;;;;;;5033485;28;20305;-69
2023/12/16 00:06:14;;;;;;;27.57;9.50;;;;;;;;;;5016866;28;20191;-69
2023/12/16 00:08:40;;;;;;;22.23;8.47;;;;;;;;;;5033897;28;20192;-69
2023/12/16 00:11:06;;;;;;;26.70;8.70;;;;;;;;;;5034673;28;20175;-69
2023/12/16 00:13:32;;;;;;;17.43;7.97;;;;;;;;;;5016917;28;20203;-69
2023/12/16 00:15:58;;;;;;;15.80;8.57;;;;;;;;;;5034259;28;20175;-69
2023/12/16 00:18:24;;;;;;;21.60;9.00;;;;;;;;;;5015925;28;20237;-69
2023/12/16 00:20:50;;;;;;;22.53;8.63;;;;;;;;;;5015555;28;20194;-69
2023/12/16 00:23:16;;;;;;;16.93;7.90;;;;;;;;;;5033134;28;20681;-69
2023/12/16 00:25:42;;;;;;;20.93;8.37;;;;;;;;;;5015687;28;20179;-69
2023/12/16 00:28:08;;;;;;;17.57;8.50;;;;;;;;;;5033168;28;20210;-69
2023/12/16 00:30:34;;;;;;;19.77;8.47;;;;;;;;;;5033224;28;20279;-69
2023/12/16 00:33:00;;;;;;;18.30;8.30;;;;;;;;;;5015381;28;20202;-68
2023/12/16 00:35:26;;;;;;;19.80;8.13;;;;;;;;;;5033288;28;20167;-69
2023/12/16 00:37:52;;;;;;;21.33;8.83;;;;;;;;;;5033412;28;20178;-69
2023/12/16 00:40:18;;;;;;;21.50;8.03;;;;;;;;;;5033173;28;20301;-69
2023/12/16 00:42:44;;;;;;;18.40;8.53;;;;;;;;;;5015620;28;20206;-69
2023/12/16 00:45:10;;;;;;;24.03;8.27;;;;;;;;;;5033137;28;20546;-69
2023/12/16 00:47:38;;;;;;;15.50;7.30;;;;;;;;;;5033678;28;20577;-68
2023/12/16 00:50:04;;;;;;;18.83;8.37;;;;;;;;;;5033335;28;20653;-69
2023/12/16 00:52:30;;;;;;;15.27;7.60;;;;;;;;;;5033153;28;20202;-69
2023/12/16 00:54:56;;;;;;;21.00;8.50;;;;;;;;;;5033403;28;20206;-69
2023/12/16 00:57:22;;;;;;;21.90;8.33;;;;;;;;;;5033222;28;20176;-69
2023/12/16 00:59:48;;;;;;;18.90;7.93;;;;;;;;;;5032957;28;20568;-69
2023/12/16 01:02:14;;;;;;;21.50;7.30;;;;;;;;;;5032706;28;20214;-69
2023/12/16 01:04:41;;;;;;;19.07;7.23;;;;;;;;;;5033377;28;20167;-69
2023/12/16 01:07:07;;;;;;;21.77;9.10;;;;;;;;;;5015327;28;20668;-69
2023/12/16 01:09:33;;;;;;;18.33;8.33;;;;;;;;;;5015214;28;20198;-69
2023/12/16 01:11:59;;;;;;;23.57;8.07;;;;;;;;;;5033433;28;20191;-69
2023/12/16 01:14:25;;;;;;;19.37;8.30;;;;;;;;;;5015993;28;20298;-69
2023/12/16 01:16:51;;;;;;;19.90;8.27;;;;;;;;;;5033267;28;20179;-69
2023/12/16 01:19:17;;;;;;;18.50;8.40;;;;;;;;;;5034914;28;20175;-69
2023/12/16 01:21:44;;;;;;;20.30;7.57;;;;;;;;;;5018906;28;20186;-69
2023/12/16 01:24:10;;;;;;;23.30;7.97;;;;;;;;;;5018754;28;20187;-69
2023/12/16 01:26:36;;;;;;;20.83;8.33;;;;;;;;;;5018647;28;20202;-69
2023/12/16 01:29:02;;;;;;;18.77;7.57;;;;;;;;;;5036408;28;20183;-69
2023/12/16 01:31:28;;;;;;;21.17;7.53;;;;;;;;;;5018822;28;20179;-69
2023/12/16 01:33:54;;;;;;;16.63;7.30;;;;;;;;;;5036486;28;20361;-69
2023/12/16 01:36:20;;;;;;;15.63;7.13;;;;;;;;;;5018509;28;20179;-69
2023/12/16 01:38:46;;;;;;;19.30;8.00;;;;;;;;;;5018371;28;20183;-69
2023/12/16 01:41:12;;;;;;;18.37;6.03;;;;;;;;;;5036690;28;20543;-69
2023/12/16 01:43:38;;;;;;;17.07;6.87;;;;;;;;;;5018556;28;20213;-69
2023/12/16 01:46:05;;;;;;;18.63;6.63;;;;;;;;;;5036166;28;20605;-69
2023/12/16 01:48:33;;;;;;;13.87;6.10;;;;;;;;;;5018530;28;20634;-69
2023/12/16 01:50:59;;;;;;;18.40;7.67;;;;;;;;;;5019030;28;20187;-69
2023/12/16 01:53:26;;;;;;;15.23;5.93;;;;;;;;;;5036599;28;20616;-69
2023/12/16 01:55:53;;;;;;;17.57;6.20;;;;;;;;;;5018570;28;20184;-69
2023/12/16 01:58:19;;;;;;;14.10;5.33;;;;;;;;;;5036101;28;20279;-69
2023/12/16 02:00:46;;;;;;;17.40;6.27;;;;;;;;;;5036353;28;20587;-69
2023/12/16 02:03:14;;;;;;;12.67;5.97;;;;;;;;;;5048203;28;20215;-69
2023/12/16 02:05:41;;;;;;;18.60;6.17;;;;;;;;;;5049390;28;20221;-69
2023/12/16 02:08:07;;;;;;;16.03;5.33;;;;;;;;;;5027109;28;20187;-69
2023/12/16 02:10:33;;;;;;;11.90;4.90;;;;;;;;;;5021011;28;20216;-69
2023/12/16 02:13:03;;;;;;;13.43;5.30;;;;;;;;;;5027864;28;20203;-69
2023/12/16 02:15:29;;;;;;;16.50;5.63;;;;;;;;;;5043603;28;20179;-69
2023/12/16 02:17:55;;;;;;;16.97;5.60;;;;;;;;;;5027866;28;20653;-69
2023/12/16 02:20:21;;;;;;;12.33;4.63;;;;;;;;;;5045898;28;20179;-69
2023/12/16 02:22:47;;;;;;;12.43;5.13;;;;;;;;;;5025485;28;20195;-69
2023/12/16 02:25:14;;;;;;;14.77;5.30;;;;;;;;;;5018010;28;20568;-69
2023/12/16 02:27:43;;;;;;;12.00;4.50;;;;;;;;;;5035927;28;20657;-69
2023/12/16 02:30:09;;;;;;;12.10;5.40;;;;;;;;;;5035045;28;20230;-68
2023/12/16 02:32:35;;;;;;;12.73;5.33;;;;;;;;;;5017461;28;20202;-68
2023/12/16 02:35:01;;;;;;;17.90;5.50;;;;;;;;;;5017571;28;20215;-69
2023/12/16 02:37:27;;;;;;;15.17;5.37;;;;;;;;;;5035359;28;20233;-70
2023/12/16 02:39:53;;;;;;;15.03;6.07;;;;;;;;;;5035321;28;20176;-67
2023/12/16 02:42:19;;;;;;;16.93;4.60;;;;;;;;;;5035521;28;20278;-68
2023/12/16 02:44:45;;;;;;;15.20;5.10;;;;;;;;;;5035438;28;20219;-68
2023/12/16 02:47:11;;;;;;;15.30;5.43;;;;;;;;;;5036050;28;20175;-68
2023/12/16 02:49:37;;;;;;;16.80;5.73;;;;;;;;;;5018622;28;20217;-68
2023/12/16 02:52:03;;;;;;;12.60;4.97;;;;;;;;;;5036635;28;20225;-68
2023/12/16 02:54:29;;;;;;;16.47;5.60;;;;;;;;;;5041959;28;20254;-68
2023/12/16 02:56:55;;;;;;;14.30;5.53;;;;;;;;;;5031491;28;20645;-68
2023/12/16 02:59:21;;;;;;;16.73;4.87;;;;;;;;;;5034550;28;20321;-69
2023/12/16 03:01:47;;;;;;;15.80;5.30;;;;;;;;;;5035545;28;20185;-69
2023/12/16 03:04:13;;;;;;;8.60;4.20;;;;;;;;;;5029221;28;20171;-69
2023/12/16 03:06:45;;;;;;;11.00;5.60;;;;;;;;;;5035182;28;20210;-69
2023/12/16 03:09:11;;;;;;;15.40;4.50;;;;;;;;;;5016861;28;20186;-69
2023/12/16 03:11:37;;;;;;;12.50;5.20;;;;;;;;;;5034992;28;20323;-69
2023/12/16 03:14:03;;;;;;;14.13;4.87;;;;;;;;;;5016611;28;20319;-69
2023/12/16 03:16:29;;;;;;;10.43;4.63;;;;;;;;;;5034487;28;20175;-69
2023/12/16 03:18:55;;;;;;;10.20;4.83;;;;;;;;;;5016891;28;20281;-68
2023/12/16 03:21:21;;;;;;;18.33;5.27;;;;;;;;;;5034447;28;20249;-69
2023/12/16 03:23:47;;;;;;;11.40;4.50;;;;;;;;;;5035504;28;20282;-69
2023/12/16 03:26:13;;;;;;;11.30;4.10;;;;;;;;;;5036328;28;20210;-69
2023/12/16 03:28:39;;;;;;;11.80;4.20;;;;;;;;;;5017305;28;20225;-68
2023/12/16 03:31:04;;;;;;;16.50;4.07;;;;;;;;;;5034942;28;20187;-69
2023/12/16 03:33:30;;;;;;;11.53;4.20;;;;;;;;;;5017775;28;20207;-69
2023/12/16 03:35:56;;;;;;;10.93;4.20;;;;;;;;;;5034483;28;20183;-69
2023/12/16 03:38:22;;;;;;;8.77;3.93;;;;;;;;;;5034461;28;20320;-69
2023/12/16 03:40:48;;;;;;;11.67;4.60;;;;;;;;;;5034227;28;20549;-69
2023/12/16 03:43:16;;;;;;;10.50;3.90;;;;;;;;;;5034058;28;20295;-69
2023/12/16 03:45:42;;;;;;;16.77;5.43;;;;;;;;;;5034181;28;20190;-69
2023/12/16 03:48:08;;;;;;;19.17;4.50;;;;;;;;;;5034058;28;20257;-69
2023/12/16 03:50:34;;;;;;;15.23;4.03;;;;;;;;;;5016483;28;20187;-67
2023/12/16 03:53:00;;;;;;;11.43;3.97;;;;;;;;;;5033981;28;20270;-69
2023/12/16 03:55:26;;;;;;;15.63;4.70;;;;;;;;;;5034401;28;20237;-69
2023/12/16 03:57:51;;;;;;;8.27;3.60;;;;;;;;;;5034051;28;20178;-69
2023/12/16 04:00:18;;;;;;;11.07;4.47;;;;;;;;;;5034125;28;20175;-68
2023/12/16 04:02:44;;;;;;;11.30;4.30;;;;;;;;;;5015937;28;20230;-69
2023/12/16 04:05:10;;;;;;;16.00;3.87;;;;;;;;;;5015929;28;20179;-69
2023/12/16 04:07:36;;;;;;;11.87;4.53;;;;;;;;;;5033845;28;20223;-69
2023/12/16 04:10:03;;;;;;;18.47;5.27;;;;;;;;;;5033762;28;20186;-69
2023/12/16 04:12:29;;;;;;;8.70;4.40;;;;;;;;;;5033616;28;20265;-69
2023/12/16 04:14:55;;;;;;;14.90;4.87;;;;;;;;;;5015608;28;20588;-70
2023/12/16 04:17:20;;;;;;;12.73;4.20;;;;;;;;;;5015829;28;20197;-69
2023/12/16 04:19:53;;;;;;;16.13;4.23;;;;;;;;;;5015994;28;20189;-69
2023/12/16 04:22:20;;;;;;;10.30;4.13;;;;;;;;;;5033359;28;20610;-69
2023/12/16 04:24:46;;;;;;;14.00;4.50;;;;;;;;;;5015763;28;20215;-69
2023/12/16 04:27:12;;;;;;;11.90;4.50;;;;;;;;;;5033198;28;20187;-70
2023/12/16 04:29:38;;;;;;;9.83;4.30;;;;;;;;;;5015814;28;20215;-69
2023/12/16 04:32:05;;;;;;;15.57;4.90;;;;;;;;;;5033412;28;20203;-69
2023/12/16 04:34:30;;;;;;;12.30;4.43;;;;;;;;;;5033250;28;20199;-69
2023/12/16 04:36:56;;;;;;;12.20;4.70;;;;;;;;;;5033968;28;20185;-69
2023/12/16 04:39:22;;;;;;;15.10;5.50;;;;;;;;;;5033374;28;20219;-69
2023/12/16 04:41:48;;;;;;;16.70;5.90;;;;;;;;;;5033287;28;20175;-69
2023/12/16 04:44:14;;;;;;;13.07;5.10;;;;;;;;;;5033406;28;20187;-69
2023/12/16 04:46:40;;;;;;;12.43;4.10;;;;;;;;;;5033286;28;20205;-69
2023/12/16 04:49:06;;;;;;;15.23;5.20;;;;;;;;;;5033307;28;20220;-69
2023/12/16 04:51:32;;;;;;;11.67;4.73;;;;;;;;;;5018766;28;20183;-70
2023/12/16 04:53:58;;;;;;;16.63;5.40;;;;;;;;;;5030339;28;20297;-68
2023/12/16 04:56:24;;;;;;;15.80;5.37;;;;;;;;;;5050554;28;20171;-69
2023/12/16 04:58:50;;;;;;;10.90;5.10;;;;;;;;;;5041041;28;20179;-69
2023/12/16 05:01:16;;;;;;;11.30;5.00;;;;;;;;;;5038162;28;20203;-69
2023/12/16 05:03:42;;;;;;;12.47;5.17;;;;;;;;;;5037674;28;20688;-69
2023/12/16 05:06:08;;;;;;;13.57;4.87;;;;;;;;;;5037782;28;20183;-70
2023/12/16 05:08:34;;;;;;;14.17;4.77;;;;;;;;;;5037741;28;20254;-70
2023/12/16 05:11:01;;;;;;;14.70;5.30;;;;;;;;;;5037447;28;20209;-70
2023/12/16 05:13:27;;;;;;;12.87;4.73;;;;;;;;;;5037463;28;20207;-70
2023/12/16 05:15:53;;;;;;;17.30;4.87;;;;;;;;;;5020131;28;20179;-70
2023/12/16 05:18:19;;;;;;;14.67;4.63;;;;;;;;;;5038630;28;20306;-69
2023/12/16 05:20:45;;;;;;;11.80;4.87;;;;;;;;;;5021134;28;20270;-70
2023/12/16 05:23:11;;;;;;;16.50;4.93;;;;;;;;;;5038688;28;20753;-69
2023/12/16 05:25:39;;;;;;;10.63;4.70;;;;;;;;;;5038326;28;20616;-70
2023/12/16 05:28:06;;;;;;;18.90;5.67;;;;;;;;;;5038603;28;20179;-70
2023/12/16 05:30:31;;;;;;;9.70;4.17;;;;;;;;;;5038641;28;20183;-68
2023/12/16 05:32:57;;;;;;;12.00;4.70;;;;;;;;;;5038170;28;20282;-69
2023/12/16 05:35:24;;;;;;;14.80;4.00;;;;;;;;;;5020131;28;20179;-69
2023/12/16 05:37:49;;;;;;;14.90;4.50;;;;;;;;;;5039738;28;20178;-69
2023/12/16 05:40:15;;;;;;;12.47;4.53;;;;;;;;;;5023661;28;20175;-70
2023/12/16 05:42:41;;;;;;;14.87;4.90;;;;;;;;;;5041144;28;20203;-69
2023/12/16 05:45:08;;;;;;;13.03;4.30;;;;;;;;;;5040195;28;20560;-69
2023/12/16 05:47:34;;;;;;;13.93;4.30;;;;;;;;;;5038568;28;20649;-69
2023/12/16 05:50:00;;;;;;;12.13;4.80;;;;;;;;;;5037541;28;20187;-69
2023/12/16 05:52:26;;;;;;;17.23;5.07;;;;;;;;;;5036897;28;20667;-69
2023/12/16 05:54:52;;;;;;;16.10;4.70;;;;;;;;;;5037295;28;20198;-69
2023/12/16 05:57:18;;;;;;;15.23;4.90;;;;;;;;;;5037012;28;20286;-70
2023/12/16 05:59:44;;;;;;;9.93;4.37;;;;;;;;;;5036700;28;20175;-70
2023/12/16 06:02:10;;;;;;;13.73;4.60;;;;;;;;;;5036446;28;20206;-70
2023/12/16 06:04:36;;;;;;;12.80;4.30;;;;;;;;;;5036406;28;20225;-70
2023/12/16 06:07:02;;;;;;;17.13;5.07;;;;;;;;;;5035576;28;20179;-70
2023/12/16 06:09:28;;;;;;;14.40;4.53;;;;;;;;;;5018583;28;20270;-70
2023/12/16 06:11:55;;;;;;;13.73;4.40;;;;;;;;;;5036331;28;20233;-70
2023/12/16 06:14:21;;;;;;;10.23;4.03;;;;;;;;;;5018756;28;20234;-70
2023/12/16 06:16:47;;;;;;;14.60;4.60;;;;;;;;;;5036711;28;20531;-70
2023/12/16 06:19:13;;;;;;;13.87;3.83;;;;;;;;;;5036341;28;20179;-70
2023/12/16 06:21:39;;;;;;;13.77;4.33;;;;;;;;;;5036431;28;20306;-69
2023/12/16 06:24:08;;;;;;;12.83;4.30;;;;;;;;;;5036399;28;20205;-70
2023/12/16 06:26:34;;;;;;;11.17;4.13;;;;;;;;;;5036230;28;20202;-70
2023/12/16 06:29:00;;;;;;;11.87;4.37;;;;;;;;;;5017753;28;20194;-70
2023/12/16 06:31:26;;;;;;;15.10;4.77;;;;;;;;;;5035942;28;20262;-69
2023/12/16 06:33:52;;;;;;;8.63;3.70;;;;;;;;;;5035440;28;20203;-70
2023/12/16 06:36:18;;;;;;;15.87;4.00;;;;;;;;;;5018485;28;20175;-69
2023/12/16 06:38:44;;;;;;;10.37;3.80;;;;;;;;;;5035881;28;20175;-69
2023/12/16 06:41:10;;;;;;;13.13;4.43;;;;;;;;;;5036444;28;20233;-69
2023/12/16 06:43:36;;;;;;;18.47;4.30;;;;;;;;;;5035699;28;20229;-70
2023/12/16 06:46:02;;;;;;;13.77;4.23;;;;;;;;;;5035831;28;20186;-69
2023/12/16 06:48:28;;;;;;;12.77;4.87;;;;;;;;;;5035604;28;20183;-69
2023/12/16 06:50:57;;;;;;;12.17;4.50;;;;;;;;;;5035913;28;20213;-69
2023/12/16 06:53:23;;;;;;;12.77;4.40;;;;;;;;;;5035852;28;20199;-69
2023/12/16 06:55:49;;;;;;;12.63;3.80;;;;;;;;;;5035433;28;20179;-69
2023/12/16 06:58:15;;;;;;;12.80;4.60;;;;;;;;;;5035841;28;20193;-68
2023/12/16 07:00:41;;;;;;;10.00;4.00;;;;;;;;;;5017761;28;20182;-69
2023/12/16 07:03:07;;;;;;;17.47;4.93;;;;;;;;;;5016913;28;20230;-69
2023/12/16 07:05:34;;;;;;;16.67;5.43;;;;;;;;;;5035194;28;20220;-69
2023/12/16 07:08:00;;;;;;;15.87;4.87;;;;;;;;;;5017339;28;20176;-69
2023/12/16 07:10:27;;;;;;;12.27;4.70;;;;;;;;;;5034737;28;20240;-69
2023/12/16 07:12:53;;;;;;;15.00;4.57;;;;;;;;;;5017072;28;20245;-69
2023/12/16 07:15:20;;;;;;;16.17;4.63;;;;;;;;;;5017144;28;20222;-69
2023/12/16 07:17:46;;;;;;;14.23;4.63;;;;;;;;;;5016735;28;20202;-69
2023/12/16 07:20:12;;;;;;;16.87;5.30;;;;;;;;;;5034968;28;20183;-69
2023/12/16 07:22:38;;;;;;;15.73;4.30;;;;;;;;;;5034973;28;20209;-69
2023/12/16 07:25:04;;;;;;;12.53;4.60;;;;;;;;;;5017183;28;20175;-69
2023/12/16 07:27:30;;;;;;;13.73;4.40;;;;;;;;;;5034936;28;20183;-68
2023/12/16 07:29:57;;;;;;;13.40;4.63;;;;;;;;;;5034612;28;20171;-69
2023/12/16 07:32:23;;;;;;;12.00;4.37;;;;;;;;;;5017159;28;20202;-69
2023/12/16 07:34:52;;;;;;;14.77;5.00;;;;;;;;;;5016904;28;20199;-69
2023/12/16 07:37:21;;;;;;;10.03;4.90;;;;;;;;;;5016704;28;20179;-69
2023/12/16 07:39:47;;;;;;;14.67;4.67;;;;;;;;;;5034591;28;20187;-69
2023/12/16 07:42:13;;;;;;;16.57;4.43;;;;;;;;;;5047516;28;20199;-70
2023/12/16 07:44:40;;;;;;;12.03;5.00;;;;;;;;;;5029867;28;20187;-69
2023/12/16 07:47:05;;;;;;;12.03;4.77;;;;;;;;;;5028150;28;20183;-69
2023/12/16 07:49:31;;;;;;;11.90;4.57;;;;;;;;;;5035023;28;20321;-69
2023/12/16 07:51:57;;;;;;;16.80;5.30;;;;;;;;;;5035161;28;20199;-69
2023/12/16 07:54:24;;;;;;;14.50;4.73;;;;;;;;;;5018491;28;20294;-69
2023/12/16 07:56:51;;;;;;;19.83;5.10;;;;;;;;;;5035385;28;20209;-69
2023/12/16 07:59:17;;;;;;;17.33;5.07;;;;;;;;;;5036552;28;20254;-69
2023/12/16 08:01:48;;;;;;;16.97;5.30;;;;;;;;;;5036609;28;20175;-70
2023/12/16 08:04:14;;;;;;;14.27;4.60;;;;;;;;;;5018270;28;20176;-70
2023/12/16 08:06:40;;;;;;;12.57;4.57;;;;;;;;;;5017638;28;20269;-70
2023/12/16 08:09:06;;;;;;;18.40;5.50;;;;;;;;;;5035193;28;20171;-70
2023/12/16 08:11:33;;;;;;;17.83;5.33;;;;;;;;;;5034710;28;20210;-70
2023/12/16 08:13:59;;;;;;;12.90;4.80;;;;;;;;;;5016283;28;20245;-69
2023/12/16 08:16:26;;;;;;;17.10;4.70;;;;;;;;;;5033997;28;20179;-69
2023/12/16 08:18:51;;;;;;;21.73;5.10;;;;;;;;;;5016429;28;20172;-69
2023/12/16 08:21:18;;;;;;;10.43;4.63;;;;;;;;;;5034615;28;20266;-69
2023/12/16 08:23:45;;;;;;;13.23;4.73;;;;;;;;;;5016315;28;20206;-70
2023/12/16 08:26:10;;;;;;;17.43;5.20;;;;;;;;;;5038484;28;20183;-70
2023/12/16 08:28:37;;;;;;;17.50;5.90;;;;;;;;;;5042630;28;20182;-70
2023/12/16 08:31:03;;;;;;;18.50;5.53;;;;;;;;;;5016755;28;20186;-69
2023/12/16 08:33:30;;;;;;;19.10;5.53;;;;;;;;;;5034701;28;20216;-70
2023/12/16 08:35:56;;;;;;;20.83;5.37;;;;;;;;;;5034344;28;20180;-70
2023/12/16 08:38:22;;;;;;;15.47;5.20;;;;;;;;;;5016683;28;20182;-70
2023/12/16 08:40:49;;;;;;;14.40;4.47;;;;;;;;;;5034345;28;20175;-69
2023/12/16 08:43:15;;;;;;;21.87;5.37;;;;;;;;;;5034418;28;20313;-69
2023/12/16 08:45:41;;;;;;;14.30;5.43;;;;;;;;;;5034923;28;20532;-70
2023/12/16 08:48:07;;;;;;;20.63;4.87;;;;;;;;;;5035492;28;20198;-70
2023/12/16 08:50:34;;;;;;;17.53;4.87;;;;;;;;;;5017817;28;20641;-70
2023/12/16 08:52:59;;;;;;;14.87;4.43;;;;;;;;;;5021249;28;20273;-70
2023/12/16 08:55:27;;;;;;;16.33;5.23;;;;;;;;;;5045736;28;20179;-70
2023/12/16 08:57:53;;;;;;;15.93;5.00;;;;;;;;;;5043281;28;20175;-70
2023/12/16 09:00:19;;;;;;;20.73;4.97;;;;;;;;;;5045560;28;20237;-69
2023/12/16 09:02:45;;;;;;;18.17;4.63;;;;;;;;;;5049321;28;20207;-70
2023/12/16 09:05:11;;;;;;;16.97;4.90;;;;;;;;;;5048600;28;20254;-71
2023/12/16 09:07:37;;;;;;;11.50;5.07;;;;;;;;;;5049561;28;20183;-71
2023/12/16 09:10:03;;;;;;;16.03;4.60;;;;;;;;;;5052186;28;20242;-69
2023/12/16 09:12:29;;;;;;;16.07;4.83;;;;;;;;;;5024809;28;20215;-69
2023/12/16 09:14:55;;;;;;;18.30;4.90;;;;;;;;;;5038011;28;20206;-69
2023/12/16 09:17:21;;;;;;;13.10;3.90;;;;;;;;;;5019936;28;20190;-69
2023/12/16 09:19:47;;;;;;;16.83;4.53;;;;;;;;;;5042490;28;20179;-69
2023/12/16 09:22:13;;;;;;;12.57;4.17;;;;;;;;;;5037720;28;20266;-69
2023/12/16 09:24:39;;;;;;;12.37;4.37;;;;;;;;;;5034763;28;20183;-69
2023/12/16 09:27:06;;;;;;;20.40;4.70;;;;;;;;;;5017955;28;20183;-69
2023/12/16 09:29:32;;;;;;;16.47;4.60;;;;;;;;;;5035471;28;20645;-70
2023/12/16 09:31:58;;;;;;;14.03;3.97;;;;;;;;;;5034981;28;20229;-69
2023/12/16 09:34:24;;;;;;;17.53;4.87;;;;;;;;;;5016344;28;20249;-69
2023/12/16 09:36:50;;;;;;;19.00;4.47;;;;;;;;;;5035128;28;20190;-69
2023/12/16 09:39:16;;;;;;;15.17;3.83;;;;;;;;;;5034899;28;20290;-69
2023/12/16 09:41:44;;;;;;;12.80;4.23;;;;;;;;;;5038184;28;20167;-69
2023/12/16 09:44:15;;;;;;;13.93;4.23;;;;;;;;;;5038061;28;20175;-69
2023/12/16 09:46:41;;;;;;;18.03;4.63;;;;;;;;;;5020717;28;20194;-69
2023/12/16 09:49:07;;;;;;;18.40;4.73;;;;;;;;;;5038831;28;20183;-69
2023/12/16 09:51:33;;;;;;;13.83;4.23;;;;;;;;;;5039015;28;20186;-69
2023/12/16 09:53:59;;;;;;;17.50;3.60;;;;;;;;;;5038555;28;20245;-69
2023/12/16 09:56:30;;;;;;;13.43;4.73;;;;;;;;;;5037773;28;20214;-68
2023/12/16 09:58:56;;;;;;;21.87;5.23;;;;;;;;;;5038203;28;20175;-70
2023/12/16 10:01:24;;;;;;;16.70;4.33;;;;;;;;;;5019966;28;20179;-69
2023/12/16 10:03:50;;;;;;;9.07;4.13;;;;;;;;;;5037686;28;20217;-69
2023/12/16 10:06:16;;;;;;;12.10;4.40;;;;;;;;;;5038492;28;20179;-69
2023/12/16 10:08:42;;;;;;;14.50;5.33;;;;;;;;;;5020363;28;20181;-69
2023/12/16 10:11:08;;;;;;;17.27;4.73;;;;;;;;;;5037868;28;20662;-70
2023/12/16 10:13:54;;;;;;;10.73;3.90;;;;;;;;;;5047180;28;20231;-70
2023/12/16 10:16:26;;;;;;;16.13;4.23;;;;;;;;;;5048551;28;20171;-69
2023/12/16 10:18:53;;;;;;;13.10;3.77;;;;;;;;;;5021629;28;20177;-69
2023/12/16 10:21:24;;;;;;;11.57;3.97;;;;;;;;;;5039846;28;20182;-69
2023/12/16 10:23:50;;;;;;;13.20;4.10;;;;;;;;;;5028476;28;20649;-69
2023/12/16 10:26:16;;;;;;;10.63;3.97;;;;;;;;;;5047976;28;20190;-69
2023/12/16 10:28:49;;;;;;;10.23;4.03;;;;;;;;;;5032261;28;20205;-70
2023/12/16 10:31:15;;;;;;;10.43;3.43;;;;;;;;;;5052321;28;20167;-69
2023/12/16 10:33:42;;;;;;;15.43;3.97;;;;;;;;;;5051780;28;20300;-70
2023/12/16 10:36:08;;;;;;;15.73;4.30;;;;;;;;;;5050491;28;20171;-71
2023/12/16 10:38:34;;;;;;;12.90;3.50;;;;;;;;;;5048578;28;20234;-70
2023/12/16 10:41:00;;;;;;;14.20;3.40;;;;;;;;;;5051604;28;20202;-71
2023/12/16 10:43:26;;;;;;;14.07;3.60;;;;;;;;;;5050512;28;20198;-70
2023/12/16 10:45:54;;;;;;;10.90;3.40;;;;;;;;;;5049581;28;20186;-70
2023/12/16 10:48:21;;;;;;;13.77;4.33;;;;;;;;;;5050575;28;20179;-71
2023/12/16 10:50:47;;;;;;;12.23;3.20;;;;;;;;;;5051937;28;20237;-70
2023/12/16 10:53:34;;;;;;;11.67;2.90;;;;;;;;;;5033135;28;20601;-70
2023/12/16 10:56:02;;;;;;;13.33;3.63;;;;;;;;;;5034828;28;20194;-69
2023/12/16 10:58:31;;;;;;;14.40;4.13;;;;;;;;;;5035272;28;20191;-72
2023/12/16 11:01:04;;;;;;;10.23;3.73;;;;;;;;;;5053725;28;20171;-70
2023/12/16 11:03:52;;;;;;;14.17;4.10;;;;;;;;;;5052634;28;20221;-70
2023/12/16 11:06:25;;;;;;;9.70;3.20;;;;;;;;;;5052052;28;20165;-71
2023/12/16 11:08:52;;;;;;;11.87;3.20;;;;;;;;;;5052620;28;20193;-71
2023/12/16 11:11:19;;;;;;;14.37;3.47;;;;;;;;;;5037117;28;20183;-70
2023/12/16 11:13:45;;;;;;;10.77;3.07;;;;;;;;;;5053067;28;20225;-70
2023/12/16 11:16:14;;;;;;;13.67;3.47;;;;;;;;;;5035117;28;20187;-70
2023/12/16 11:18:40;;;;;;;13.63;4.10;;;;;;;;;;5053613;28;20305;-69
2023/12/16 11:21:12;;;;;;;18.73;4.10;;;;;;;;;;5051585;28;20175;-70
2023/12/16 11:23:48;;;;;;;13.10;3.77;;;;;;;;;;5032689;28;20187;-70
2023/12/16 11:26:16;;;;;;;14.27;3.90;;;;;;;;;;5052716;28;20234;-70
2023/12/16 11:28:41;;;;;;;20.17;4.40;;;;;;;;;;5052409;28;20183;-70
2023/12/16 11:31:10;;;;;;;13.60;3.40;;;;;;;;;;5051282;28;20229;-70
2023/12/16 11:33:43;;;;;;;12.50;3.63;;;;;;;;;;5052162;28;20214;-70
2023/12/16 11:36:09;;;;;;;16.13;4.47;;;;;;;;;;5034136;28;20167;-70
2023/12/16 11:38:35;;;;;;;16.47;3.87;;;;;;;;;;5052869;28;20583;-70
2023/12/16 11:41:02;;;;;;;15.20;4.30;;;;;;;;;;5053315;28;20159;-71
2023/12/16 11:44:03;;;;;;;18.50;4.30;;;;;;;;;;5036930;28;20206;-70
2023/12/16 11:46:35;;;;;;;13.60;3.60;;;;;;;;;;4953054;29;20194;-70
2023/12/16 11:49:03;;;;;;;16.20;3.60;;;;;;;;;;5016510;28;20223;-70
2023/12/16 11:51:29;;;;;;;13.87;3.67;;;;;;;;;;5047824;28;20172;-70
2023/12/16 11:53:57;;;;;;;12.63;3.17;;;;;;;;;;5027933;28;20222;-70
2023/12/16 11:56:23;;;;;;;10.93;3.43;;;;;;;;;;5047848;28;20175;-69
2023/12/16 11:58:49;;;;;;;18.47;3.87;;;;;;;;;;5030079;28;20193;-71
2023/12/16 12:01:16;;;;;;;13.87;4.20;;;;;;;;;;5028660;28;20280;-70
2023/12/16 12:03:42;;;;;;;17.00;3.83;;;;;;;;;;5045384;28;20214;-70
2023/12/16 12:06:09;;;;;;;12.63;3.33;;;;;;;;;;5048731;28;20171;-70
2023/12/16 12:08:35;;;;;;;11.40;3.20;;;;;;;;;;5030479;28;20255;-72
2023/12/16 12:11:05;;;;;;;11.00;3.77;;;;;;;;;;5030646;28;20223;-72
2023/12/16 12:13:31;;;;;;;22.97;4.80;;;;;;;;;;5027634;28;20210;-69
2023/12/16 12:15:57;;;;;;;16.93;4.83;;;;;;;;;;5045068;28;20186;-69
2023/12/16 12:18:23;;;;;;;16.77;4.37;;;;;;;;;;5046203;28;20175;-69
2023/12/16 12:20:49;;;;;;;12.83;4.10;;;;;;;;;;5028377;28;20209;-69
2023/12/16 12:23:15;;;;;;;14.47;4.13;;;;;;;;;;5028050;28;20199;-70
2023/12/16 12:25:41;;;;;;;18.87;3.80;;;;;;;;;;5047116;28;20181;-70
2023/12/16 12:28:10;;;;;;;15.67;4.30;;;;;;;;;;5047791;28;20172;-70
2023/12/16 12:30:36;;;;;;;17.93;4.90;;;;;;;;;;5046903;28;20186;-71
2023/12/16 12:33:02;;;;;;;14.40;4.40;;;;;;;;;;5047655;28;20199;-72
2023/12/16 12:35:28;;;;;;;18.70;5.13;;;;;;;;;;5047518;28;20211;-70
2023/12/16 12:37:54;;;;;;;16.20;4.43;;;;;;;;;;5048352;28;20179;-71
2023/12/16 12:40:20;;;;;;;15.47;4.37;;;;;;;;;;5048792;28;20209;-71
2023/12/16 12:42:48;;;;;;;13.87;4.37;;;;;;;;;;5048323;28;20202;-71
2023/12/16 12:45:26;;;;;;;18.60;5.50;;;;;;;;;;5030323;28;20206;-70
2023/12/16 12:47:53;;;;;;;13.07;4.43;;;;;;;;;;5030847;28;20191;-70
2023/12/16 12:50:20;;;;;;;17.47;4.97;;;;;;;;;;5031650;28;20179;-71
2023/12/16 12:52:46;;;;;;;18.80;5.73;;;;;;;;;;5031768;28;20203;-70
2023/12/16 12:55:12;;;;;;;14.63;5.00;;;;;;;;;;5029311;28;20256;-70
2023/12/16 12:57:38;;;;;;;14.60;4.93;;;;;;;;;;5027550;28;20660;-70
2023/12/16 13:00:04;;;;;;;19.30;5.27;;;;;;;;;;5028479;28;20176;-71
2023/12/16 13:02:31;;;;;;;15.17;4.87;;;;;;;;;;5049129;28;20222;-71
2023/12/16 13:04:57;;;;;;;17.17;5.07;;;;;;;;;;5051518;28;20183;-71
2023/12/16 13:07:23;;;;;;;12.60;5.47;;;;;;;;;;5047488;28;20258;-71
2023/12/16 13:09:49;;;;;;;15.80;4.47;;;;;;;;;;5043471;28;20229;-69
2023/12/16 13:12:15;;;;;;;15.07;5.63;;;;;;;;;;5049726;28;20262;-70
2023/12/16 13:14:44;;;;;;;14.40;5.23;;;;;;;;;;5049701;28;20199;-70
2023/12/16 13:17:10;;;;;;;10.83;4.20;;;;;;;;;;5052303;28;20178;-69
2023/12/16 13:19:36;;;;;;;13.57;5.27;;;;;;;;;;5050469;28;20176;-69
2023/12/16 13:22:02;;;;;;;13.37;5.27;;;;;;;;;;5054285;28;20564;-69
2023/12/16 13:24:30;;;;;;;13.33;4.80;;;;;;;;;;5054637;28;20226;-71
2023/12/16 13:26:56;;;;;;;12.50;4.90;;;;;;;;;;5035447;28;20235;-70
2023/12/16 13:29:22;;;;;;;12.57;4.30;;;;;;;;;;5034974;28;20187;-71
2023/12/16 13:31:48;;;;;;;14.47;4.40;;;;;;;;;;5053511;28;20183;-70
2023/12/16 13:34:14;;;;;;;17.13;5.77;;;;;;;;;;5054313;28;20258;-70
2023/12/16 13:36:40;;;;;;;13.87;4.30;;;;;;;;;;5052440;28;20230;-70
2023/12/16 13:39:07;;;;;;;14.70;4.43;;;;;;;;;;5051507;28;20202;-70
2023/12/16 13:41:33;;;;;;;7.03;3.90;;;;;;;;;;5052867;28;20179;-70
2023/12/16 13:43:59;;;;;;;12.17;4.43;;;;;;;;;;5033452;28;20190;-70
2023/12/16 13:46:25;;;;;;;13.77;4.80;;;;;;;;;;5034936;28;20221;-70
2023/12/16 13:48:51;;;;;;;14.23;4.63;;;;;;;;;;5038369;28;20183;-70
2023/12/16 13:51:17;;;;;;;11.80;4.50;;;;;;;;;;5036612;28;20219;-70
2023/12/16 13:53:43;;;;;;;7.00;4.10;;;;;;;;;;5055063;28;20211;-70
2023/12/16 13:56:09;;;;;;;16.20;5.00;;;;;;;;;;5054167;28;20181;-69
2023/12/16 13:58:35;;;;;;;14.20;4.53;;;;;;;;;;5031464;28;20306;-69
2023/12/16 14:01:01;;;;;;;11.27;4.10;;;;;;;;;;5037921;28;20175;-69
2023/12/16 14:03:27;;;;;;;14.17;4.13;;;;;;;;;;5037471;28;20217;-70
2023/12/16 14:05:53;;;;;;;10.70;5.20;;;;;;;;;;5038028;28;20267;-70
2023/12/16 14:08:19;;;;;;;9.93;4.10;;;;;;;;;;5037886;28;20175;-69
2023/12/16 14:10:45;;;;;;;14.63;4.40;;;;;;;;;;5037261;28;20187;-69
2023/12/16 14:13:11;;;;;;;14.33;5.10;;;;;;;;;;5036730;28;20581;-70
2023/12/16 14:15:37;;;;;;;13.37;4.93;;;;;;;;;;5037236;28;20179;-70
2023/12/16 14:18:03;;;;;;;15.47;5.37;;;;;;;;;;5037361;28;20175;-69
2023/12/16 14:20:29;;;;;;;12.73;4.80;;;;;;;;;;5037389;28;20190;-70
2023/12/16 14:22:55;;;;;;;10.70;4.20;;;;;;;;;;5019510;28;20248;-69
2023/12/16 14:25:21;;;;;;;15.00;5.23;;;;;;;;;;5036899;28;20619;-70
2023/12/16 14:27:48;;;;;;;13.57;4.37;;;;;;;;;;5036115;28;20557;-70